createdAt,value
2022-08-18T00:01:11.647Z,8.18
2022-08-18T00:03:56.734Z,8.18
2022-08-18T00:06:32.419Z,7.93
2022-08-18T00:09:02.674Z,7.68
2022-08-18T00:11:41.197Z,7.32
2022-08-18T00:14:19.347Z,7.28
2022-08-18T00:16:51.568Z,7.82
2022-08-18T00:19:19.537Z,7.70
2022-08-18T00:21:48.780Z,7.18
2022-08-18T00:24:16.754Z,7.20
2022-08-18T00:26:44.726Z,7.07
2022-08-18T00:29:16.637Z,6.32
2022-08-18T00:31:44.600Z,7.07
2022-08-18T00:34:12.779Z,7.00
2022-08-18T00:36:41.124Z,7.15
2022-08-18T00:39:10.580Z,6.80
2022-08-18T00:41:38.538Z,7.10
2022-08-18T00:44:06.390Z,6.25
2022-08-18T00:46:37.718Z,7.00
2022-08-18T00:49:06.079Z,6.93
2022-08-18T00:51:40.756Z,6.90
2022-08-18T00:54:14.647Z,6.45
2022-08-18T00:56:46.189Z,6.63
2022-08-18T00:59:20.610Z,6.25
2022-08-18T01:01:51.323Z,6.63
2022-08-18T01:04:23.832Z,6.45
2022-08-18T01:06:54.964Z,6.30
2022-08-18T01:09:24.546Z,6.32
2022-08-18T01:11:52.494Z,6.70
2022-08-18T01:14:21.211Z,6.28
2022-08-18T01:17:07.613Z,6.35
2022-08-18T01:19:54.053Z,6.93
2022-08-18T01:22:28.476Z,6.57
2022-08-18T01:25:18.037Z,6.65
2022-08-18T01:27:46.114Z,6.72
2022-08-18T01:30:18.277Z,6.60
2022-08-18T01:32:46.850Z,7.13
2022-08-18T01:35:18.150Z,6.85
2022-08-18T01:37:46.140Z,6.38
2022-08-18T01:41:17.270Z,7.03
2022-08-18T01:43:06.185Z,7.20
2022-08-18T01:45:34.575Z,7.30
2022-08-18T01:48:04.879Z,7.03
2022-08-18T01:50:34.218Z,6.53
2022-08-18T01:53:04.387Z,7.25
2022-08-18T01:55:34.194Z,7.32
2022-08-18T01:58:02.427Z,7.00
2022-08-18T02:00:32.258Z,6.63
2022-08-18T02:03:02.771Z,7.40
2022-08-18T02:05:37.332Z,6.82
2022-08-18T02:08:06.561Z,7.50
2022-08-18T02:10:36.217Z,7.15
2022-08-18T02:13:04.848Z,6.93
2022-08-18T02:15:33.519Z,7.22
2022-08-18T02:18:01.472Z,7.70
2022-08-18T02:20:29.348Z,7.40
2022-08-18T02:22:58.660Z,6.43
2022-08-18T02:25:26.626Z,6.85
2022-08-18T02:27:55.884Z,7.22
2022-08-18T02:30:23.890Z,6.20
2022-08-18T02:32:51.825Z,7.82
2022-08-18T02:35:19.942Z,6.60
2022-08-18T02:37:48.221Z,7.13
2022-08-18T02:40:19.020Z,7.03
2022-08-18T02:42:48.038Z,7.10
2022-08-18T02:45:17.559Z,6.88
2022-08-18T02:47:45.920Z,6.90
2022-08-18T02:50:16.572Z,6.50
2022-08-18T02:52:44.510Z,6.80
2022-08-18T02:55:12.856Z,6.85
2022-08-18T02:57:43.654Z,6.60
2022-08-18T03:00:15.301Z,6.53
2022-08-18T03:02:48.686Z,7.13
2022-08-18T03:07:45.401Z,6.45
2022-08-18T03:10:33.528Z,6.85
2022-08-18T03:13:02.173Z,6.78
2022-08-18T03:15:30.063Z,6.45
2022-08-18T03:17:59.579Z,6.75
2022-08-18T03:20:30.917Z,6.85
2022-08-18T03:23:09.514Z,7.00
2022-08-18T03:25:38.349Z,6.78
2022-08-18T03:28:07.009Z,6.43
2022-08-18T03:30:35.180Z,6.40
2022-08-18T03:33:04.733Z,6.57
2022-08-18T03:35:34.190Z,6.95
2022-08-18T03:38:02.500Z,6.50
2022-08-18T03:40:30.387Z,6.60
2022-08-18T03:42:58.326Z,6.40
2022-08-18T03:45:31.918Z,6.30
2022-08-18T03:48:00.697Z,7.07
2022-08-18T03:50:32.241Z,6.15
2022-08-18T03:53:00.395Z,5.93
2022-08-18T03:55:29.567Z,6.47
2022-08-18T03:58:02.844Z,5.88
2022-08-18T04:00:33.395Z,6.10
2022-08-18T04:03:04.022Z,5.38
2022-08-18T04:05:35.178Z,5.78
2022-08-18T04:08:04.901Z,6.15
2022-08-18T04:10:32.768Z,5.93
2022-08-18T04:13:00.945Z,6.35
2022-08-18T04:15:28.933Z,6.03
2022-08-18T04:18:03.844Z,5.80
2022-08-18T04:20:33.689Z,5.90
2022-08-18T04:23:01.987Z,6.30
2022-08-18T04:25:32.921Z,6.07
2022-08-18T04:28:03.605Z,5.63
2022-08-18T04:30:32.261Z,6.22
2022-08-18T04:33:02.405Z,5.88
2022-08-18T04:35:33.621Z,5.85
2022-08-18T04:38:01.697Z,5.68
2022-08-18T04:40:30.057Z,5.78
2022-08-18T04:42:58.144Z,5.32
2022-08-18T04:45:26.175Z,5.95
2022-08-18T04:47:54.201Z,6.47
2022-08-18T04:50:24.454Z,5.97
2022-08-18T04:53:16.944Z,6.57
2022-08-18T04:55:49.312Z,6.10
2022-08-18T04:58:18.769Z,6.15
2022-08-18T05:00:47.174Z,5.97
2022-08-18T05:03:15.597Z,5.85
2022-08-18T05:05:43.608Z,5.30
2022-08-18T05:08:12.887Z,5.70
2022-08-18T05:10:41.425Z,5.82
2022-08-18T05:13:09.779Z,5.43
2022-08-18T05:15:59.335Z,5.68
2022-08-18T05:18:26.639Z,5.30
2022-08-18T05:20:56.676Z,5.63
2022-08-18T05:23:26.614Z,5.72
2022-08-18T05:25:58.850Z,5.38
2022-08-18T05:28:27.133Z,5.20
2022-08-18T05:30:55.180Z,5.18
2022-08-18T05:33:28.279Z,5.22
2022-08-18T05:36:04.435Z,5.38
2022-08-18T05:38:42.514Z,5.40
2022-08-18T05:41:15.209Z,5.18
2022-08-18T05:43:52.061Z,5.40
2022-08-18T05:46:22.087Z,5.38
2022-08-18T05:48:50.963Z,4.88
2022-08-18T05:51:24.302Z,4.82
2022-08-18T05:54:11.346Z,5.30
2022-08-18T05:56:50.237Z,5.55
2022-08-18T05:59:23.544Z,5.22
2022-08-18T06:01:57.475Z,5.07
2022-08-18T06:04:34.503Z,4.72
2022-08-18T06:07:06.473Z,5.45
2022-08-18T06:09:42.617Z,4.93
2022-08-18T06:12:19.150Z,5.47
2022-08-18T06:14:47.198Z,5.43
2022-08-18T06:17:30.245Z,5.80
2022-08-18T06:20:09.170Z,5.00
2022-08-18T06:22:52.094Z,5.20
2022-08-18T06:25:34.180Z,5.20
2022-08-18T06:28:07.285Z,5.28
2022-08-18T06:30:51.154Z,5.05
2022-08-18T06:33:43.335Z,5.32
2022-08-18T06:36:21.501Z,5.93
2022-08-18T06:38:57.057Z,5.68
2022-08-18T06:41:43.492Z,5.57
2022-08-18T06:44:20.781Z,5.00
2022-08-18T06:46:53.662Z,5.25
2022-08-18T06:49:31.947Z,5.10
2022-08-18T06:52:00.233Z,5.40
2022-08-18T06:54:30.560Z,5.50
2022-08-18T06:57:00.403Z,5.57
2022-08-18T06:59:32.342Z,6.05
2022-08-18T07:02:03.903Z,5.20
2022-08-18T07:04:40.237Z,5.03
2022-08-18T07:07:17.355Z,5.70
2022-08-18T07:09:45.744Z,5.20
2022-08-18T07:12:23.117Z,5.78
2022-08-18T07:14:53.566Z,6.05
2022-08-18T07:17:42.738Z,5.97
2022-08-18T07:20:20.978Z,5.18
2022-08-18T07:22:57.365Z,5.45
2022-08-18T07:25:31.949Z,5.53
2022-08-18T07:28:02.701Z,5.15
2022-08-18T07:30:34.457Z,5.70
2022-08-18T07:33:12.597Z,5.57
2022-08-18T07:35:45.570Z,5.18
2022-08-18T07:38:41.333Z,4.85
2022-08-18T07:41:15.519Z,4.60
2022-08-18T07:43:58.178Z,4.95
2022-08-18T07:46:32.751Z,5.07
2022-08-18T07:49:04.701Z,5.30
2022-08-18T07:51:45.773Z,5.47
2022-08-18T07:54:47.800Z,5.45
2022-08-18T07:57:20.492Z,4.90
2022-08-18T07:59:58.670Z,5.40
2022-08-18T08:02:41.388Z,4.70
2022-08-18T08:05:18.537Z,5.20
2022-08-18T08:07:50.933Z,5.03
2022-08-18T08:10:37.422Z,5.97
2022-08-18T08:13:37.068Z,5.63
2022-08-18T08:16:20.095Z,6.05
2022-08-18T08:18:58.284Z,5.47
2022-08-18T08:21:33.265Z,5.80
2022-08-18T08:24:14.092Z,5.13
2022-08-18T08:26:55.161Z,5.70
2022-08-18T08:29:38.492Z,5.68
2022-08-18T08:32:13.481Z,5.68
2022-08-18T08:34:46.305Z,5.50
2022-08-18T08:39:50.605Z,5.82
2022-08-18T08:42:32.072Z,6.38
2022-08-18T08:47:43.673Z,6.55
2022-08-18T08:50:16.776Z,6.00
2022-08-18T08:52:51.386Z,5.88
2022-08-18T08:55:25.569Z,6.28
2022-08-18T08:58:02.007Z,5.78
2022-08-18T09:00:31.063Z,6.10
2022-08-18T09:03:13.424Z,6.20
2022-08-18T09:05:54.777Z,6.32
2022-08-18T09:08:43.833Z,6.40
2022-08-18T09:11:27.734Z,6.47
2022-08-18T09:14:14.969Z,5.47
2022-08-18T09:16:53.251Z,6.65
2022-08-18T09:19:46.107Z,6.05
2022-08-18T09:22:29.766Z,6.68
2022-08-18T09:24:58.764Z,6.45
2022-08-18T09:28:07.320Z,6.03
2022-08-18T09:30:45.144Z,6.00
2022-08-18T09:33:22.913Z,6.30
2022-08-18T09:36:25.701Z,6.05
2022-08-18T09:39:18.588Z,6.13
2022-08-18T09:41:52.661Z,5.93
2022-08-18T09:47:11.183Z,5.63
2022-08-18T09:53:02.271Z,6.25
2022-08-18T09:58:53.853Z,5.25
2022-08-18T10:01:41.298Z,5.03
2022-08-18T10:04:29.108Z,5.63
2022-08-18T10:07:20.785Z,5.82
2022-08-18T10:10:00.817Z,6.00
2022-08-18T10:12:49.144Z,6.70
2022-08-18T10:15:36.665Z,5.80
2022-08-18T10:18:31.608Z,5.82
2022-08-18T10:21:10.558Z,6.18
2022-08-18T10:24:02.903Z,6.05
2022-08-18T10:27:13.563Z,6.28
2022-08-18T10:29:59.562Z,6.03
2022-08-18T10:32:52.264Z,6.10
2022-08-18T10:35:58.398Z,6.32
2022-08-18T10:38:53.445Z,5.78
2022-08-18T10:41:26.406Z,6.50
2022-08-18T10:44:20.830Z,6.70
2022-08-18T10:46:51.463Z,5.63
2022-08-18T10:49:26.024Z,6.22
2022-08-18T10:52:10.745Z,6.53
2022-08-18T10:54:59.158Z,6.30
2022-08-18T10:57:35.428Z,6.85
2022-08-18T11:00:11.659Z,6.70
2022-08-18T11:03:39.988Z,5.93
2022-08-18T11:06:03.633Z,6.40
2022-08-18T11:08:44.648Z,6.70
2022-08-18T11:11:34.242Z,5.45
2022-08-18T11:14:12.379Z,5.65
2022-08-18T11:16:50.575Z,5.97
2022-08-18T11:19:25.767Z,7.20
2022-08-18T11:21:54.507Z,6.45
2022-08-18T11:24:25.621Z,6.40
2022-08-18T11:26:56.009Z,6.60
2022-08-18T11:29:28.723Z,6.65
2022-08-18T11:32:03.988Z,6.57
2022-08-18T11:34:38.072Z,6.55
2022-08-18T11:37:20.864Z,6.68
2022-08-18T11:39:51.057Z,6.65
2022-08-18T11:42:21.703Z,6.35
2022-08-18T11:44:55.959Z,6.45
2022-08-18T11:47:27.769Z,6.68
2022-08-18T11:50:04.411Z,6.55
2022-08-18T11:55:29.021Z,6.35
2022-08-18T11:58:00.308Z,6.10
2022-08-18T12:00:53.586Z,6.78
2022-08-18T12:03:30.040Z,7.25
2022-08-18T12:06:00.679Z,6.72
2022-08-18T12:11:28.811Z,7.70
2022-08-18T12:14:32.310Z,7.28
2022-08-18T12:16:55.775Z,6.47
2022-08-18T12:19:30.670Z,7.40
2022-08-18T12:22:01.905Z,7.40
2022-08-18T12:24:36.789Z,7.22
2022-08-18T12:29:58.275Z,6.68
2022-08-18T12:32:46.474Z,6.53
2022-08-18T12:35:21.721Z,6.72
2022-08-18T12:40:39.938Z,7.10
2022-08-18T12:43:08.034Z,6.53
2022-08-18T12:45:37.986Z,6.47
2022-08-18T12:48:07.174Z,6.32
2022-08-18T12:50:49.957Z,5.97
2022-08-18T12:53:29.820Z,6.22
2022-08-18T12:58:55.827Z,6.25
2022-08-18T13:01:25.466Z,5.82
2022-08-18T13:04:11.087Z,5.90
2022-08-18T13:06:59.222Z,5.85
2022-08-18T13:09:35.000Z,5.85
2022-08-18T13:12:17.199Z,6.28
2022-08-18T13:14:45.822Z,5.68
2022-08-18T13:17:30.518Z,6.25
2022-08-18T13:20:01.645Z,6.70
2022-08-18T13:22:32.477Z,8.15
2022-08-18T13:25:01.464Z,7.40
2022-08-18T13:27:32.735Z,6.88
2022-08-18T13:30:03.470Z,6.90
2022-08-18T13:32:59.494Z,7.88
2022-08-18T13:35:38.064Z,8.68
2022-08-18T13:38:21.759Z,7.40
2022-08-18T13:40:54.893Z,8.40
2022-08-18T13:43:28.147Z,6.97
2022-08-18T13:45:56.538Z,7.20
2022-08-18T13:48:25.546Z,7.93
2022-08-18T13:50:55.769Z,7.55
2022-08-18T13:53:27.599Z,7.30
2022-08-18T13:55:58.578Z,7.22
2022-08-18T13:58:27.719Z,6.60
2022-08-18T14:01:22.476Z,6.43
2022-08-18T14:03:48.117Z,6.72
2022-08-18T14:06:22.644Z,6.63
2022-08-18T14:08:54.575Z,6.20
2022-08-18T14:11:27.995Z,6.43
2022-08-18T14:14:01.888Z,7.03
2022-08-18T14:16:30.937Z,6.90
2022-08-18T14:19:17.654Z,6.95
2022-08-18T14:22:06.240Z,7.18
2022-08-18T14:24:54.432Z,7.00
2022-08-18T14:27:29.018Z,6.93
2022-08-18T14:30:06.669Z,7.00
2022-08-18T14:32:36.384Z,6.88
2022-08-18T14:35:32.138Z,7.07
2022-08-18T14:38:01.556Z,6.72
2022-08-18T14:40:33.321Z,6.80
2022-08-18T14:43:02.661Z,6.93
2022-08-18T14:45:35.666Z,7.18
2022-08-18T14:48:06.640Z,6.88
2022-08-18T14:50:37.037Z,6.80
2022-08-18T14:53:05.403Z,7.28
2022-08-18T14:55:35.941Z,6.32
2022-08-18T14:58:07.174Z,6.80
2022-08-18T15:00:49.880Z,7.43
2022-08-18T15:03:31.284Z,7.45
2022-08-18T15:06:04.679Z,7.28
2022-08-18T15:08:34.454Z,6.60
2022-08-18T15:11:11.695Z,7.53
2022-08-18T15:13:41.616Z,7.03
2022-08-18T15:16:13.713Z,6.63
2022-08-18T15:18:41.758Z,7.28
2022-08-18T15:21:35.057Z,6.55
2022-08-18T15:24:24.361Z,7.78
2022-08-18T15:26:58.238Z,6.88
2022-08-18T15:29:34.271Z,7.45
2022-08-18T15:32:05.854Z,7.22
2022-08-18T15:34:47.278Z,7.20
2022-08-18T15:37:20.375Z,6.90
2022-08-18T15:40:00.922Z,7.15
2022-08-18T15:42:33.208Z,8.10
2022-08-18T15:45:12.108Z,7.85
2022-08-18T15:47:42.214Z,7.25
2022-08-18T15:50:25.634Z,7.05
2022-08-18T15:52:57.617Z,7.70
2022-08-18T15:55:27.533Z,7.47
2022-08-18T15:57:58.274Z,7.30
2022-08-18T16:00:28.145Z,7.47
2022-08-18T16:02:58.740Z,7.88
2022-08-18T16:05:31.809Z,8.38
2022-08-18T16:08:01.219Z,7.38
2022-08-18T16:10:32.241Z,7.63
2022-08-18T16:13:04.369Z,7.53
2022-08-18T16:15:36.925Z,7.45
2022-08-18T16:18:06.664Z,7.50
2022-08-18T16:20:35.126Z,7.60
2022-08-18T16:23:03.592Z,8.07
2022-08-18T16:25:31.565Z,7.55
2022-08-18T16:28:01.395Z,8.50
2022-08-18T16:30:30.197Z,8.20
2022-08-18T16:33:02.778Z,8.70
2022-08-18T16:35:31.532Z,8.70
2022-08-18T16:38:04.463Z,7.95
2022-08-18T16:40:32.433Z,8.13
2022-08-18T16:43:01.726Z,8.02
2022-08-18T16:45:31.470Z,7.70
2022-08-18T16:47:59.740Z,7.70
2022-08-18T16:50:28.149Z,7.70
2022-08-18T16:52:56.489Z,8.18
2022-08-18T16:55:24.497Z,7.70
2022-08-18T16:58:14.840Z,8.13
2022-08-18T17:01:03.221Z,8.02
2022-08-18T17:03:47.752Z,7.50
2022-08-18T17:06:18.491Z,8.00
2022-08-18T17:08:46.979Z,7.82
2022-08-18T17:11:17.736Z,7.78
2022-08-18T17:13:46.879Z,8.13
2022-08-18T17:16:18.058Z,8.18
2022-08-18T17:18:46.738Z,7.55
2022-08-18T17:21:17.711Z,8.13
2022-08-18T17:23:46.523Z,7.50
2022-08-18T17:26:23.102Z,8.48
2022-08-18T17:28:55.597Z,8.38
2022-08-18T17:31:25.301Z,9.05
2022-08-18T17:33:57.886Z,7.07
2022-08-18T17:36:33.554Z,7.00
2022-08-18T17:39:05.206Z,5.50
2022-08-18T17:41:54.445Z,5.45
2022-08-18T17:44:28.640Z,2.67
2022-08-18T17:47:03.206Z,2.15
2022-08-18T17:49:54.261Z,1.85
2022-08-18T17:52:41.821Z,1.98
2022-08-18T17:55:14.594Z,2.08
2022-08-18T17:57:58.680Z,2.25
2022-08-18T18:00:29.380Z,2.13
2022-08-18T18:02:58.679Z,2.45
2022-08-18T18:05:36.409Z,2.60
2022-08-18T18:08:04.864Z,2.70
2022-08-18T18:10:51.142Z,3.22
2022-08-18T18:13:32.337Z,3.20
2022-08-18T18:16:02.001Z,3.22
2022-08-18T18:18:38.580Z,3.28
2022-08-18T18:21:19.025Z,3.63
2022-08-18T18:23:48.824Z,3.78
2022-08-18T18:26:28.282Z,3.90
2022-08-18T18:29:33.565Z,3.67
2022-08-18T18:32:05.428Z,3.60
2022-08-18T18:34:39.581Z,3.50
2022-08-18T18:37:25.341Z,3.90
2022-08-18T18:39:58.365Z,3.42
2022-08-18T18:42:28.928Z,4.38
2022-08-18T18:44:59.037Z,6.15
2022-08-18T18:47:48.707Z,5.38
2022-08-18T18:50:25.803Z,3.13
2022-08-18T18:53:05.844Z,2.50
2022-08-18T18:55:38.369Z,2.28
2022-08-18T18:58:19.221Z,2.30
2022-08-18T19:00:54.226Z,2.35
2022-08-18T19:03:29.336Z,2.20
2022-08-18T19:06:12.160Z,2.25
2022-08-18T19:08:48.556Z,2.07
2022-08-18T19:11:23.981Z,2.08
2022-08-18T19:13:56.575Z,1.90
2022-08-18T19:16:34.649Z,2.15
2022-08-18T19:19:35.399Z,2.25
2022-08-18T19:22:06.488Z,1.90
2022-08-18T19:24:41.542Z,1.70
2022-08-18T19:27:23.393Z,1.80
2022-08-18T19:29:55.652Z,1.80
2022-08-18T19:32:33.292Z,2.15
2022-08-18T19:35:10.504Z,1.75
2022-08-18T19:38:00.780Z,1.30
2022-08-18T19:40:37.428Z,1.33
2022-08-18T19:43:12.374Z,1.50
2022-08-18T19:45:47.053Z,1.45
2022-08-18T19:53:56.575Z,1.00
2022-08-18T19:56:42.382Z,0.98
2022-08-18T19:59:34.134Z,1.00
2022-08-18T20:02:20.769Z,1.10
2022-08-18T20:05:03.658Z,1.00
2022-08-18T20:08:03.910Z,1.13
2022-08-18T20:10:51.387Z,1.30
2022-08-18T20:13:33.600Z,1.10
2022-08-18T20:16:24.952Z,1.25
2022-08-18T20:18:58.264Z,1.15
2022-08-18T20:21:45.435Z,1.65
2022-08-18T20:24:43.779Z,2.50
2022-08-18T20:27:34.972Z,3.03
2022-08-18T20:30:23.966Z,5.97
2022-08-18T20:33:29.209Z,6.55
2022-08-18T20:36:10.412Z,7.35
2022-08-18T20:38:41.084Z,8.95
2022-08-18T20:41:42.833Z,9.23
2022-08-18T20:44:50.440Z,10.00
2022-08-18T20:47:42.000Z,8.18
2022-08-18T20:50:46.714Z,7.75
2022-08-18T20:53:26.281Z,7.60
2022-08-18T20:59:04.104Z,6.85
2022-08-18T21:01:38.974Z,5.80
2022-08-18T21:04:08.856Z,6.13
2022-08-18T21:06:41.967Z,5.90
2022-08-18T21:09:10.397Z,6.15
2022-08-18T21:11:42.948Z,7.15
2022-08-18T21:14:12.810Z,6.17
2022-08-18T21:16:45.019Z,6.28
2022-08-18T21:19:20.624Z,6.43
2022-08-18T21:21:51.681Z,7.15
2022-08-18T21:24:23.268Z,7.72
2022-08-18T21:26:54.858Z,8.85
2022-08-18T21:29:22.951Z,9.75
2022-08-18T21:31:50.905Z,9.30
2022-08-18T21:34:35.834Z,9.65
2022-08-18T21:37:10.052Z,10.57
2022-08-18T21:39:49.566Z,11.20
2022-08-18T21:42:23.256Z,11.77
2022-08-18T21:44:54.970Z,11.32
2022-08-18T21:47:25.029Z,11.57
2022-08-18T21:50:09.308Z,10.77
2022-08-18T21:52:39.765Z,11.30
2022-08-18T21:55:13.939Z,11.68
2022-08-18T21:58:00.809Z,11.15
2022-08-18T22:00:31.067Z,10.82
2022-08-18T22:03:21.463Z,11.45
2022-08-18T22:06:00.051Z,11.23
2022-08-18T22:08:31.743Z,11.00
2022-08-18T22:11:38.285Z,10.60
2022-08-18T22:14:27.888Z,10.45
2022-08-18T22:17:40.505Z,9.77
2022-08-18T22:20:44.042Z,9.73
2022-08-18T22:23:43.300Z,10.00
2022-08-18T22:26:14.132Z,10.05
2022-08-18T22:28:52.705Z,8.98
2022-08-18T22:31:21.501Z,10.25
2022-08-18T22:33:50.082Z,10.25
2022-08-18T22:36:21.582Z,10.02
2022-08-18T22:38:52.314Z,10.55
2022-08-18T22:41:20.891Z,10.15
2022-08-18T22:43:49.733Z,10.35
2022-08-18T22:46:24.702Z,10.85
2022-08-18T22:48:53.672Z,9.57
2022-08-18T22:51:23.422Z,9.77
2022-08-18T22:53:53.397Z,9.63
2022-08-18T22:56:26.501Z,8.48
2022-08-18T22:59:15.542Z,8.55
2022-08-18T23:01:48.045Z,8.73
2022-08-18T23:04:17.211Z,8.82
2022-08-18T23:06:52.047Z,8.73
2022-08-18T23:09:24.693Z,8.32
2022-08-18T23:11:54.016Z,8.93
2022-08-18T23:14:22.396Z,8.75
2022-08-18T23:16:50.667Z,9.10
2022-08-18T23:19:20.777Z,8.10
2022-08-18T23:21:49.846Z,8.60
2022-08-18T23:24:19.702Z,8.32
2022-08-18T23:26:49.814Z,8.45
2022-08-18T23:29:17.986Z,8.55
2022-08-18T23:31:48.328Z,7.57
2022-08-18T23:34:17.881Z,7.25
2022-08-18T23:36:47.294Z,7.22
2022-08-18T23:39:15.289Z,7.43
2022-08-18T23:41:43.535Z,7.45
2022-08-18T23:44:14.900Z,7.18
2022-08-18T23:46:44.532Z,6.50
2022-08-18T23:49:14.614Z,6.32
2022-08-18T23:51:44.895Z,6.60
2022-08-18T23:54:15.341Z,6.03
2022-08-18T23:56:43.329Z,6.00
2022-08-18T23:59:13.595Z,5.90
